Time;durP1;ratioP1;P1;durP2;ratioP2;P2;SDS_P1;SDS_P2;PMS_P1;PMS_P2;Temp;Humidity;BMP_temperature;BMP_pressure;BME280_temperature;BME280_humidity;BME280_pressure;Samples;Min_cycle;Max_cycle;Signal;HPM_P1;HPM_P2
2023/01/31 00:01:16;;;;;;;41.73;7.57;;;3.50;99.90;;;;;;5068998;28;20459;-76
2023/01/31 00:03:42;;;;;;;42.07;6.03;;;3.40;99.90;;;;;;5068814;28;20155;-75
2023/01/31 00:06:20;;;;;;;34.73;6.03;;;3.40;99.90;;;;;;5060061;28;20059;-76
2023/01/31 00:08:47;;;;;;;39.10;6.33;;;3.30;99.90;;;;;;5063882;28;20044;-75
2023/01/31 00:11:15;;;;;;;35.20;5.60;;;3.30;99.90;;;;;;5065462;28;20055;-75
2023/01/31 00:13:41;;;;;;;34.90;6.23;;;3.30;99.90;;;;;;5068389;28;20147;-75
2023/01/31 00:16:09;;;;;;;36.27;6.60;;;3.30;99.90;;;;;;5043804;28;20103;-75
2023/01/31 00:18:37;;;;;;;40.47;6.63;;;3.30;99.90;;;;;;5058917;28;20047;-77
2023/01/31 00:21:20;;;;;;;38.27;7.00;;;3.30;99.90;;;;;;5069082;28;20059;-77
2023/01/31 00:23:47;;;;;;;37.87;6.97;;;3.20;99.90;;;;;;5067226;28;20040;-77
2023/01/31 00:26:24;;;;;;;35.43;5.80;;;3.20;99.90;;;;;;5042567;28;20060;-78
2023/01/31 00:28:53;;;;;;;30.67;5.80;;;3.20;99.90;;;;;;5044964;28;20041;-77
2023/01/31 00:31:20;;;;;;;39.37;6.47;;;3.10;99.90;;;;;;5063371;28;20061;-77
2023/01/31 00:33:47;;;;;;;37.40;6.07;;;3.10;99.90;;;;;;5066958;28;20436;-77
2023/01/31 00:36:20;;;;;;;31.13;5.47;;;3.10;99.90;;;;;;5058619;28;20056;-77
2023/01/31 00:38:51;;;;;;;29.30;5.63;;;3.30;99.90;;;;;;5067811;28;20040;-77
2023/01/31 00:41:18;;;;;;;32.22;5.50;;;3.20;99.90;;;;;;5071857;28;20056;-78
2023/01/31 00:43:44;;;;;;;35.10;5.30;;;3.00;99.90;;;;;;5070416;28;20048;-77
2023/01/31 00:46:10;;;;;;;35.57;5.30;;;3.00;99.90;;;;;;5063532;28;20052;-77
2023/01/31 00:48:35;;;;;;;42.10;6.17;;;3.00;99.90;;;;;;5043951;28;20103;-78
2023/01/31 00:51:01;;;;;;;34.63;5.90;;;3.00;99.90;;;;;;5055790;28;20040;-77
2023/01/31 00:53:27;;;;;;;26.33;6.17;;;3.10;99.90;;;;;;5070130;28;20048;-77
2023/01/31 00:55:55;;;;;;;29.73;6.93;;;3.10;99.90;;;;;;5071343;28;20056;-77
2023/01/31 00:58:21;;;;;;;25.30;5.13;;;3.10;99.90;;;;;;5053413;28;20449;-77
2023/01/31 01:00:47;;;;;;;34.57;5.50;;;3.00;99.90;;;;;;5054653;28;20048;-78
2023/01/31 01:03:13;;;;;;;26.10;5.20;;;2.90;99.90;;;;;;5071039;28;20052;-77
2023/01/31 01:05:39;;;;;;;30.07;5.83;;;3.00;99.90;;;;;;5054520;28;20076;-78
2023/01/31 01:08:05;;;;;;;33.53;5.83;;;3.00;99.90;;;;;;5055045;28;20116;-77
2023/01/31 01:10:31;;;;;;;34.20;5.63;;;3.00;99.90;;;;;;5069776;28;20036;-77
2023/01/31 01:12:56;;;;;;;31.60;5.27;;;3.10;99.90;;;;;;5070315;28;20053;-77
2023/01/31 01:15:22;;;;;;;35.63;5.93;;;3.00;99.90;;;;;;5072211;28;20047;-75
2023/01/31 01:17:49;;;;;;;23.43;4.90;;;3.10;99.90;;;;;;5054783;28;20458;-75
2023/01/31 01:20:16;;;;;;;26.57;5.60;;;3.10;99.90;;;;;;5071979;28;20041;-75
2023/01/31 01:22:41;;;;;;;33.03;5.40;;;3.10;99.90;;;;;;5070271;28;20072;-76
2023/01/31 01:25:08;;;;;;;31.47;5.83;;;3.10;99.90;;;;;;5064869;28;20088;-75
2023/01/31 01:27:34;;;;;;;36.47;5.30;;;3.10;99.90;;;;;;5034967;28;20064;-75
2023/01/31 01:30:00;;;;;;;29.57;5.33;;;3.10;99.90;;;;;;5055833;28;20195;-75
2023/01/31 01:32:27;;;;;;;41.53;7.47;;;3.20;99.90;;;;;;5070435;28;20040;-75
2023/01/31 01:34:53;;;;;;;31.10;6.07;;;3.20;99.90;;;;;;5071528;28;20048;-75
2023/01/31 01:37:21;;;;;;;25.67;5.67;;;3.30;99.90;;;;;;5053905;28;20580;-75
2023/01/31 01:39:48;;;;;;;43.67;6.00;;;3.30;99.90;;;;;;5071624;28;20071;-75
2023/01/31 01:42:15;;;;;;;34.20;5.17;;;3.30;99.90;;;;;;5069826;28;20045;-75
2023/01/31 01:44:48;;;;;;;25.83;5.43;;;3.30;99.90;;;;;;5069801;28;20055;-75
2023/01/31 01:47:32;;;;;;;34.43;5.13;;;3.30;99.90;;;;;;5054633;28;20506;-76
2023/01/31 01:50:29;;;;;;;31.63;5.43;;;3.30;99.90;;;;;;5070903;28;20053;-75
2023/01/31 01:53:18;;;;;;;33.50;5.10;;;3.30;99.90;;;;;;5050520;28;20056;-75
2023/01/31 01:55:51;;;;;;;30.53;5.23;;;3.30;99.90;;;;;;5064830;28;20136;-75
2023/01/31 01:58:25;;;;;;;32.17;5.30;;;3.30;99.90;;;;;;5054198;28;20060;-75
2023/01/31 02:00:52;;;;;;;26.30;4.67;;;3.30;99.90;;;;;;5069844;28;20544;-75
2023/01/31 02:03:18;;;;;;;29.63;5.03;;;3.30;99.90;;;;;;5070363;28;20131;-76
2023/01/31 02:06:05;;;;;;;27.70;4.73;;;3.80;99.90;;;;;;5070507;28;20490;-75
2023/01/31 02:08:34;;;;;;;33.70;5.50;;;3.40;99.90;;;;;;5058264;28;20083;-75
2023/01/31 02:11:07;;;;;;;35.50;5.37;;;3.40;99.90;;;;;;5070711;28;20075;-76
2023/01/31 02:13:34;;;;;;;24.33;4.77;;;3.40;99.90;;;;;;5069534;28;20045;-75
2023/01/31 02:15:59;;;;;;;27.20;4.67;;;3.40;99.90;;;;;;5069213;28;20053;-75
2023/01/31 02:18:26;;;;;;;27.40;4.70;;;3.40;99.90;;;;;;5054369;28;20387;-75
2023/01/31 02:21:20;;;;;;;28.73;4.57;;;3.30;99.90;;;;;;5069478;28;20402;-75
2023/01/31 02:24:01;;;;;;;24.23;4.73;;;3.30;99.90;;;;;;5064674;28;20098;-75
2023/01/31 02:26:39;;;;;;;30.05;5.07;;;3.30;99.90;;;;;;5054564;28;20048;-75
2023/01/31 02:29:26;;;;;;;29.03;5.10;;;3.30;99.90;;;;;;5068192;28;20095;-75
2023/01/31 02:32:33;;;;;;;29.60;5.00;;;3.40;99.90;;;;;;5050022;28;20083;-75
2023/01/31 02:35:02;;;;;;;31.73;5.00;;;3.40;99.90;;;;;;5049877;28;20079;-75
2023/01/31 02:37:49;;;;;;;33.17;5.13;;;3.40;99.90;;;;;;5053737;28;20410;-75
2023/01/31 02:40:20;;;;;;;27.77;4.60;;;3.40;99.90;;;;;;5069137;28;20052;-75
2023/01/31 02:42:46;;;;;;;;;;;3.50;99.90;;;;;;5068427;28;20074;-75
2023/01/31 02:45:18;;;;;;;24.20;4.50;;;3.50;99.90;;;;;;5069923;28;20429;-76
2023/01/31 02:48:09;;;;;;;31.53;5.20;;;3.50;99.90;;;;;;5053293;28;20136;-75
2023/01/31 02:50:46;;;;;;;28.17;5.20;;;3.50;99.90;;;;;;5070155;28;20549;-75
2023/01/31 02:53:33;;;;;;;31.43;4.83;;;3.60;99.90;;;;;;5068878;28;20045;-75
2023/01/31 02:56:13;;;;;;;28.77;4.57;;;3.60;99.90;;;;;;5068899;28;20049;-75
2023/01/31 02:58:43;;;;;;;30.33;5.07;;;3.60;99.90;;;;;;5062706;28;20127;-75
2023/01/31 03:01:14;;;;;;;34.03;4.47;;;3.60;99.90;;;;;;5068785;28;20456;-75
2023/01/31 03:03:40;;;;;;;24.80;4.35;;;3.70;99.90;;;;;;5067932;28;20456;-75
2023/01/31 03:06:09;;;;;;;23.40;4.47;;;3.70;99.90;;;;;;5065139;28;20094;-76
2023/01/31 03:08:41;;;;;;;28.03;4.93;;;3.70;99.90;;;;;;5061350;28;20044;-75
2023/01/31 03:11:08;;;;;;;30.53;5.03;;;3.60;99.90;;;;;;5069563;28;20057;-75
2023/01/31 03:13:36;;;;;;;25.57;5.97;;;3.70;99.90;;;;;;5068315;28;20071;-75
2023/01/31 03:19:35;;;;;;;23.80;5.07;;;3.80;99.90;;;;;;5068740;28;20451;-75
2023/01/31 03:22:04;;;;;;;23.43;4.20;;;3.90;99.90;;;;;;5068271;28;20493;-76
2023/01/31 03:24:30;;;;;;;30.53;5.37;;;4.00;99.90;;;;;;5067390;28;20044;-75
2023/01/31 03:26:59;;;;;;;33.27;5.30;;;4.10;99.90;;;;;;5034141;28;20099;-75
2023/01/31 03:29:27;;;;;;;24.83;4.50;;;4.10;99.90;;;;;;5058551;28;20051;-75
2023/01/31 03:31:59;;;;;;;25.87;5.13;;;4.20;99.90;;;;;;5068526;28;20456;-75
2023/01/31 03:34:25;;;;;;;27.57;5.33;;;4.30;99.90;;;;;;5068207;28;20041;-76
2023/01/31 03:37:18;;;;;;;26.77;5.33;;;4.20;99.90;;;;;;5054130;28;20071;-76
2023/01/31 03:39:57;;;;;;;31.13;5.10;;;4.20;99.90;;;;;;5069660;28;20033;-75
2023/01/31 03:42:36;;;;;;;30.03;5.50;;;4.30;99.90;;;;;;5068332;28;20143;-75
2023/01/31 03:45:04;;;;;;;29.27;5.97;;;4.50;99.90;;;;;;5067753;28;20110;-75
2023/01/31 03:47:35;;;;;;;28.10;7.87;;;4.40;99.90;;;;;;5052604;28;20494;-76
2023/01/31 03:50:07;;;;;;;27.60;5.03;;;4.30;99.90;;;;;;5069672;28;20086;-76
2023/01/31 03:52:42;;;;;;;33.93;5.60;;;4.40;99.90;;;;;;5067650;28;20036;-75
2023/01/31 03:55:23;;;;;;;35.60;6.00;;;4.50;99.90;;;;;;5069653;28;20106;-76
2023/01/31 03:57:52;;;;;;;24.45;4.68;;;4.50;99.90;;;;;;5051651;28;20044;-76
2023/01/31 04:00:21;;;;;;;30.07;5.77;;;4.50;99.90;;;;;;5068921;28;20545;-75
2023/01/31 04:02:51;;;;;;;29.77;5.30;;;4.60;99.90;;;;;;5049174;28;20101;-75
2023/01/31 04:05:21;;;;;;;28.67;4.73;;;4.60;99.90;;;;;;5069722;28;20088;-76
2023/01/31 04:07:47;;;;;;;30.83;6.00;;;4.60;99.90;;;;;;5052102;28;20044;-76
2023/01/31 04:10:16;;;;;;;27.33;6.77;;;4.80;99.90;;;;;;5069299;28;20097;-75
2023/01/31 04:12:42;;;;;;;33.83;9.03;;;4.70;99.90;;;;;;5067243;28;20560;-76
2023/01/31 04:15:09;;;;;;;32.87;5.93;;;4.70;99.90;;;;;;5071882;28;20048;-76
2023/01/31 04:17:34;;;;;;;36.50;6.80;;;4.80;99.90;;;;;;5056380;28;20123;-75
2023/01/31 04:20:00;;;;;;;28.23;6.27;;;4.80;99.90;;;;;;5072954;28;20360;-76
2023/01/31 04:22:26;;;;;;;30.10;6.40;;;4.90;99.90;;;;;;5071537;28;20128;-75
2023/01/31 04:24:52;;;;;;;30.10;6.97;;;4.80;99.90;;;;;;5062558;28;20154;-75
2023/01/31 04:27:18;;;;;;;28.37;6.70;;;4.70;99.90;;;;;;5055298;28;20479;-75
2023/01/31 04:29:44;;;;;;;30.73;6.50;;;4.70;99.90;;;;;;5072033;28;20056;-75
2023/01/31 04:32:09;;;;;;;29.47;6.10;;;4.70;99.90;;;;;;5071236;28;20060;-76
2023/01/31 04:34:35;;;;;;;34.67;7.50;;;4.70;99.90;;;;;;5071520;28;20044;-75
2023/01/31 04:37:01;;;;;;;29.33;6.63;;;4.70;99.90;;;;;;5056300;28;20119;-75
2023/01/31 04:39:26;;;;;;;35.33;7.87;;;4.70;99.90;;;;;;5072294;28;20052;-75
2023/01/31 04:41:52;;;;;;;34.53;8.93;;;4.80;99.90;;;;;;5071969;28;20075;-75
2023/01/31 04:44:18;;;;;;;44.73;9.13;;;4.80;99.90;;;;;;5071902;28;20075;-75
2023/01/31 04:46:45;;;;;;;41.93;7.43;;;4.80;99.90;;;;;;5056556;28;20047;-76
2023/01/31 04:49:11;;;;;;;37.13;7.97;;;4.90;99.90;;;;;;5071544;28;20059;-76
2023/01/31 04:51:37;;;;;;;37.47;8.07;;;4.90;99.90;;;;;;5071095;28;20504;-75
2023/01/31 04:54:03;;;;;;;43.27;26.23;;;4.90;99.90;;;;;;5070392;28;20131;-75
2023/01/31 04:56:30;;;;;;;46.07;14.53;;;5.00;99.90;;;;;;5058119;28;20453;-76
2023/01/31 04:58:56;;;;;;;40.10;10.27;;;5.10;99.90;;;;;;5068139;28;20098;-75
2023/01/31 05:01:23;;;;;;;40.73;8.10;;;5.10;99.90;;;;;;5071694;28;20554;-75
2023/01/31 05:03:48;;;;;;;37.83;12.33;;;5.10;99.90;;;;;;5071320;28;20052;-76
2023/01/31 05:06:14;;;;;;;37.30;7.53;;;5.00;99.90;;;;;;5061324;28;20055;-76
2023/01/31 05:08:40;;;;;;;37.73;9.20;;;5.00;99.90;;;;;;5048632;28;20330;-76
2023/01/31 05:11:07;;;;;;;40.03;10.50;;;5.10;99.90;;;;;;5072238;28;20135;-76
2023/01/31 05:13:37;;;;;;;39.07;8.40;;;5.10;99.90;;;;;;5071016;28;20147;-75
2023/01/31 05:16:05;;;;;;;32.77;9.57;;;5.10;99.90;;;;;;5071427;28;20049;-75
2023/01/31 05:18:31;;;;;;;33.70;7.40;;;5.20;99.90;;;;;;5059474;28;20040;-76
2023/01/31 05:20:57;;;;;;;34.03;9.03;;;5.10;99.90;;;;;;5071467;28;20048;-76
2023/01/31 05:23:22;;;;;;;33.93;7.33;;;5.10;99.90;;;;;;5070797;28;20142;-76
2023/01/31 05:25:49;;;;;;;42.90;13.73;;;5.10;99.90;;;;;;5059442;28;20051;-76
2023/01/31 05:28:15;;;;;;;43.00;9.13;;;5.10;99.90;;;;;;5035534;28;20056;-75
2023/01/31 05:30:41;;;;;;;35.87;8.17;;;5.10;99.90;;;;;;5070114;28;20557;-76
2023/01/31 05:33:07;;;;;;;41.57;7.50;;;5.10;99.90;;;;;;5070340;28;20199;-77
2023/01/31 05:35:32;;;;;;;44.17;10.03;;;5.20;99.90;;;;;;5071808;28;20046;-77
2023/01/31 05:37:58;;;;;;;44.37;8.00;;;5.20;99.90;;;;;;5055232;28;20048;-77
2023/01/31 05:40:24;;;;;;;32.57;10.43;;;5.20;99.90;;;;;;5069723;28;20260;-75
2023/01/31 05:43:02;;;;;;;44.90;8.83;;;5.20;99.90;;;;;;5069274;28;20032;-76
2023/01/31 05:45:28;;;;;;;45.10;10.20;;;5.30;99.90;;;;;;5071225;28;20108;-75
2023/01/31 05:47:54;;;;;;;49.77;12.17;;;5.20;99.90;;;;;;5054280;28;20048;-76
2023/01/31 05:50:20;;;;;;;34.03;12.13;;;5.20;99.90;;;;;;5071321;28;20131;-76
2023/01/31 05:52:54;;;;;;;38.80;8.93;;;5.20;99.90;;;;;;5070275;28;20482;-75
2023/01/31 05:55:20;;;;;;;37.00;9.13;;;5.20;99.90;;;;;;5070923;28;20413;-76
2023/01/31 05:57:46;;;;;;;41.97;11.17;;;5.20;99.90;;;;;;5053863;28;20048;-75
2023/01/31 06:00:13;;;;;;;41.47;20.30;;;5.20;99.90;;;;;;5063944;28;20074;-76
2023/01/31 06:02:40;;;;;;;41.13;8.60;;;5.20;99.90;;;;;;5055019;28;20110;-79
2023/01/31 06:05:06;;;;;;;32.97;9.73;;;5.20;99.90;;;;;;5059672;28;20059;-77
2023/01/31 06:07:32;;;;;;;57.27;23.53;;;5.20;99.90;;;;;;5049634;28;20491;-78
2023/01/31 06:09:58;;;;;;;46.50;11.33;;;5.20;99.90;;;;;;5066439;28;20055;-76
2023/01/31 06:12:24;;;;;;;41.37;9.40;;;5.20;99.90;;;;;;5065891;28;20049;-75
2023/01/31 06:14:49;;;;;;;43.53;14.37;;;5.00;99.90;;;;;;5067732;28;20053;-76
2023/01/31 06:17:15;;;;;;;43.77;8.57;;;5.20;99.90;;;;;;5049521;28;20052;-75
2023/01/31 06:19:41;;;;;;;53.03;8.60;;;5.30;99.90;;;;;;5067461;28;20032;-76
2023/01/31 06:22:07;;;;;;;40.63;8.23;;;5.20;99.90;;;;;;5064342;28;20569;-75
2023/01/31 06:24:33;;;;;;;39.40;9.90;;;5.20;99.90;;;;;;5069319;28;20045;-75
2023/01/31 06:26:58;;;;;;;38.50;13.07;;;5.20;99.90;;;;;;5050199;28;20162;-76
2023/01/31 06:29:24;;;;;;;45.27;10.93;;;5.20;99.90;;;;;;5066172;28;20048;-76
2023/01/31 06:31:52;;;;;;;41.57;18.20;;;5.20;99.90;;;;;;5066626;28;20526;-76
2023/01/31 06:34:18;;;;;;;49.27;31.23;;;5.30;99.90;;;;;;5064713;28;20813;-76
2023/01/31 06:36:44;;;;;;;39.63;9.30;;;5.20;99.90;;;;;;5053367;28;20058;-76
2023/01/31 06:39:11;;;;;;;30.60;7.33;;;5.20;99.90;;;;;;5069759;28;20045;-76
2023/01/31 06:41:37;;;;;;;42.67;10.07;;;5.20;99.90;;;;;;5069092;28;20052;-76
2023/01/31 06:44:03;;;;;;;45.00;8.93;;;5.20;99.90;;;;;;5069399;28;20052;-76
2023/01/31 06:46:28;;;;;;;46.87;10.53;;;5.20;99.90;;;;;;5056813;28;20498;-78
2023/01/31 06:48:54;;;;;;;40.17;10.50;;;5.20;99.90;;;;;;5065755;28;20098;-76
2023/01/31 06:51:20;;;;;;;38.93;9.17;;;5.20;99.90;;;;;;5068845;28;20036;-76
2023/01/31 06:53:45;;;;;;;48.80;9.60;;;5.30;99.90;;;;;;5068654;28;20546;-76
2023/01/31 06:56:11;;;;;;;41.67;9.53;;;5.20;99.90;;;;;;5056515;28;20045;-77
2023/01/31 06:58:37;;;;;;;31.63;9.97;;;5.30;99.90;;;;;;5058060;28;20052;-77
2023/01/31 07:01:04;;;;;;;52.17;27.17;;;5.30;99.90;;;;;;5065619;28;20114;-77
2023/01/31 07:03:30;;;;;;;47.03;24.87;;;5.30;99.90;;;;;;5065660;28;20048;-76
2023/01/31 07:05:56;;;;;;;42.07;8.43;;;5.30;99.90;;;;;;5067468;28;20044;-77
2023/01/31 07:08:21;;;;;;;97.33;86.77;;;5.50;99.90;;;;;;5052445;28;20045;-77
2023/01/31 07:10:47;;;;;;;88.47;80.10;;;5.40;99.90;;;;;;5068690;28;20127;-76
2023/01/31 07:13:14;;;;;;;36.73;10.23;;;5.60;99.90;;;;;;5066288;28;20064;-77
2023/01/31 07:15:40;;;;;;;43.23;24.13;;;5.50;99.90;;;;;;5069827;28;20139;-76
2023/01/31 07:18:06;;;;;;;123.97;112.03;;;5.50;99.90;;;;;;5051852;28;20570;-76
2023/01/31 07:20:31;;;;;;;33.67;8.30;;;5.50;99.90;;;;;;5069587;28;20135;-76
2023/01/31 07:22:58;;;;;;;29.30;6.40;;;5.50;99.90;;;;;;5068522;28;20056;-76
2023/01/31 07:25:25;;;;;;;30.63;8.10;;;5.50;99.90;;;;;;5061361;28;20049;-76
2023/01/31 07:27:51;;;;;;;72.73;65.83;;;5.60;99.90;;;;;;5030851;28;20217;-77
2023/01/31 07:30:16;;;;;;;56.47;50.50;;;5.60;99.90;;;;;;5067420;28;20060;-75
2023/01/31 07:32:42;;;;;;;30.67;13.00;;;5.60;99.90;;;;;;5068067;28;20127;-78
2023/01/31 07:35:08;;;;;;;36.83;9.23;;;5.60;99.90;;;;;;5069187;28;20048;-76
2023/01/31 07:37:34;;;;;;;50.27;36.60;;;5.60;99.90;;;;;;5053091;28;20800;-75
2023/01/31 07:40:00;;;;;;;216.30;196.47;;;5.70;99.90;;;;;;5068163;28;20203;-76
2023/01/31 07:42:27;;;;;;;113.13;79.93;;;5.60;99.90;;;;;;5066886;28;20052;-76
2023/01/31 07:44:53;;;;;;;27.17;8.77;;;5.70;99.90;;;;;;5068323;28;20645;-77
2023/01/31 07:47:19;;;;;;;30.27;9.23;;;5.70;99.90;;;;;;5050441;28;20279;-76
2023/01/31 07:49:45;;;;;;;25.93;7.67;;;5.70;99.90;;;;;;5072390;28;20048;-77
2023/01/31 07:52:10;;;;;;;26.03;12.57;;;5.60;99.90;;;;;;5071214;28;20067;-77
2023/01/31 07:54:36;;;;;;;27.93;7.53;;;5.80;99.90;;;;;;5073074;28;20079;-77
2023/01/31 07:57:02;;;;;;;28.77;10.80;;;5.70;99.90;;;;;;5056408;28;20486;-73
2023/01/31 07:59:28;;;;;;;115.80;75.60;;;5.70;99.90;;;;;;5069798;28;20080;-76
2023/01/31 08:04:38;;;;;;;183.63;152.07;;;5.80;99.90;;;;;;5071678;28;20040;-76
2023/01/31 08:07:05;;;;;;;30.30;15.87;;;5.80;99.90;;;;;;5056256;28;20423;-76
2023/01/31 08:09:32;;;;;;;45.87;28.27;;;5.90;99.90;;;;;;5072168;28;20041;-77
2023/01/31 08:11:57;;;;;;;74.07;66.30;;;5.80;99.90;;;;;;5070714;28;20047;-77
2023/01/31 08:14:24;;;;;;;54.33;43.87;;;5.90;99.90;;;;;;5071452;28;20403;-77
2023/01/31 08:16:56;;;;;;;35.03;25.93;;;5.80;99.90;;;;;;5056477;28;20148;-77
2023/01/31 08:19:21;;;;;;;24.90;8.70;;;5.70;99.90;;;;;;5069177;28;20037;-77
2023/01/31 08:21:47;;;;;;;173.77;156.53;;;5.70;99.90;;;;;;5070770;28;20032;-77
2023/01/31 08:24:13;;;;;;;33.50;15.70;;;5.80;99.90;;;;;;5068293;28;20052;-78
2023/01/31 08:26:41;;;;;;;35.20;28.43;;;5.80;99.90;;;;;;5054516;28;20134;-77
2023/01/31 08:29:07;;;;;;;231.67;207.97;;;5.80;99.90;;;;;;5066632;28;20044;-77
2023/01/31 08:31:33;;;;;;;38.60;18.57;;;5.80;99.90;;;;;;5067198;28;20067;-77
2023/01/31 08:33:58;;;;;;;34.13;7.70;;;5.90;99.90;;;;;;5069113;28;20147;-77
2023/01/31 08:36:32;;;;;;;168.90;152.10;;;5.90;99.90;;;;;;5057137;28;20612;-77
2023/01/31 08:38:58;;;;;;;41.80;32.83;;;6.10;99.90;;;;;;5065561;28;20045;-77
2023/01/31 08:41:25;;;;;;;33.63;9.73;;;6.00;99.90;;;;;;5069069;28;20049;-77
2023/01/31 08:43:51;;;;;;;89.10;81.27;;;6.00;99.90;;;;;;5062511;28;20471;-77
2023/01/31 08:46:17;;;;;;;293.43;263.93;;;6.10;99.90;;;;;;5055181;28;20213;-77
2023/01/31 08:48:43;;;;;;;27.90;7.90;;;6.10;99.90;;;;;;5062982;28;20051;-77
2023/01/31 08:51:11;;;;;;;32.17;13.70;;;6.20;99.90;;;;;;5068455;28;20072;-77
2023/01/31 08:53:42;;;;;;;37.23;21.50;;;6.30;99.90;;;;;;5068631;28;20144;-77
2023/01/31 08:56:08;;;;;;;67.30;59.72;;;6.20;99.90;;;;;;5060618;28;20052;-78
2023/01/31 08:58:37;;;;;;;39.17;29.47;;;6.20;99.90;;;;;;5059565;28;20109;-77
2023/01/31 09:01:05;;;;;;;33.83;8.80;;;6.30;99.90;;;;;;5067210;28;20402;-77
2023/01/31 09:03:30;;;;;;;30.70;9.60;;;6.20;99.90;;;;;;5068347;28;20399;-77
2023/01/31 09:06:09;;;;;;;49.03;43.03;;;6.30;99.90;;;;;;5068138;28;20056;-77
2023/01/31 09:08:35;;;;;;;178.87;117.10;;;6.20;99.90;;;;;;5058378;28;20487;-78
2023/01/31 09:11:01;;;;;;;27.93;19.03;;;6.20;99.90;;;;;;5067887;28;20051;-77
2023/01/31 09:13:28;;;;;;;31.23;7.27;;;6.00;99.90;;;;;;5067948;28;20581;-77
2023/01/31 09:15:59;;;;;;;33.37;9.87;;;6.20;99.90;;;;;;5068763;28;20040;-77
2023/01/31 09:18:26;;;;;;;45.55;34.65;;;6.20;99.90;;;;;;5052234;28;20043;-77
2023/01/31 09:20:52;;;;;;;43.87;20.80;;;6.20;99.90;;;;;;5068279;28;20106;-78
2023/01/31 09:23:18;;;;;;;35.93;16.47;;;6.20;99.90;;;;;;5065857;28;20048;-77
2023/01/31 09:25:53;;;;;;;32.23;9.47;;;6.20;99.90;;;;;;5050664;28;20095;-77
2023/01/31 09:28:20;;;;;;;45.57;34.73;;;6.20;99.90;;;;;;5051656;28;20079;-78
2023/01/31 09:30:45;;;;;;;42.57;19.20;;;6.20;99.90;;;;;;5065993;28;20131;-77
2023/01/31 09:33:11;;;;;;;40.00;16.97;;;6.20;99.90;;;;;;5067031;28;20148;-77
2023/01/31 09:35:37;;;;;;;32.10;13.67;;;6.20;99.90;;;;;;5067984;28;20371;-77
2023/01/31 09:38:03;;;;;;;39.33;18.60;;;6.20;99.90;;;;;;5051880;28;20048;-78
2023/01/31 09:40:32;;;;;;;49.30;31.13;;;6.20;99.90;;;;;;5065307;28;20059;-77
2023/01/31 09:43:01;;;;;;;67.03;60.17;;;6.10;99.90;;;;;;5063526;28;20084;-77
2023/01/31 09:45:32;;;;;;;31.37;11.17;;;6.20;99.90;;;;;;5065779;28;20426;-77
2023/01/31 09:48:00;;;;;;;330.30;262.97;;;6.20;99.90;;;;;;5050601;28;20143;-77
2023/01/31 09:50:48;;;;;;;36.53;17.27;;;6.20;99.90;;;;;;5066249;28;20441;-77
2023/01/31 09:53:20;;;;;;;31.20;7.73;;;6.20;99.90;;;;;;5062831;28;20044;-77
2023/01/31 09:56:33;;;;;;;30.67;9.43;;;6.30;99.90;;;;;;5065913;28;20060;-78
2023/01/31 09:59:27;;;;;;;40.97;15.70;;;6.30;99.90;;;;;;5018605;28;20098;-77
2023/01/31 10:02:04;;;;;;;37.03;11.43;;;6.30;99.90;;;;;;5064370;28;20486;-77
2023/01/31 10:04:47;;;;;;;94.83;85.87;;;6.30;99.90;;;;;;5064248;28;20490;-77
2023/01/31 10:07:27;;;;;;;49.83;21.43;;;6.30;99.90;;;;;;5049024;28;20419;-78
2023/01/31 10:09:56;;;;;;;39.27;12.43;;;6.20;99.90;;;;;;5063281;28;20402;-77
2023/01/31 10:12:30;;;;;;;81.93;73.37;;;6.30;99.90;;;;;;5064096;28;20329;-77
2023/01/31 10:15:01;;;;;;;55.40;44.13;;;6.30;99.90;;;;;;5068408;28;20052;-77
2023/01/31 10:17:26;;;;;;;55.78;47.55;;;6.40;99.90;;;;;;5030829;28;20048;-78
2023/01/31 10:19:59;;;;;;;44.33;28.03;;;6.20;99.90;;;;;;5066469;28;20491;-78
2023/01/31 10:22:45;;;;;;;211.93;192.57;;;6.30;99.90;;;;;;5064599;28;20045;-77
2023/01/31 10:25:39;;;;;;;37.67;12.97;;;6.30;99.90;;;;;;5061710;28;20041;-77
2023/01/31 10:28:23;;;;;;;70.43;63.30;;;6.30;99.90;;;;;;5019685;28;20135;-77
2023/01/31 10:31:25;;;;;;;51.47;25.03;;;6.30;99.90;;;;;;5066881;28;20084;-77
2023/01/31 10:34:08;;;;;;;161.73;146.63;;;6.30;99.90;;;;;;5065957;28;20469;-78
2023/01/31 10:37:01;;;;;;;37.90;30.30;;;6.30;99.90;;;;;;5052077;28;20052;-78
2023/01/31 10:39:31;;;;;;;74.10;54.87;;;6.30;99.90;;;;;;5065239;28;20052;-77
2023/01/31 10:42:28;;;;;;;45.03;32.50;;;6.30;99.90;;;;;;5064358;28;20044;-77
2023/01/31 10:45:00;;;;;;;33.57;12.07;;;6.20;99.90;;;;;;5062611;28;20082;-77
2023/01/31 10:47:39;;;;;;;62.78;54.20;;;6.30;99.90;;;;;;5044079;28;20526;-76
2023/01/31 10:50:15;;;;;;;58.97;47.00;;;6.30;99.90;;;;;;5065515;28;20491;-78
2023/01/31 10:53:07;;;;;;;34.13;12.63;;;6.30;99.90;;;;;;5060867;28;20072;-78
2023/01/31 10:55:46;;;;;;;42.23;26.93;;;6.40;99.90;;;;;;5061153;28;20126;-77
2023/01/31 10:58:17;;;;;;;42.93;23.23;;;6.40;99.90;;;;;;5047384;28;20055;-78
2023/01/31 11:00:46;;;;;;;56.42;38.53;;;6.40;99.90;;;;;;5062138;28;20052;-78
2023/01/31 11:03:12;;;;;;;38.23;10.80;;;6.30;99.90;;;;;;5062115;28;20036;-77
2023/01/31 11:05:58;;;;;;;38.00;12.17;;;6.30;99.90;;;;;;5064046;28;20384;-77
2023/01/31 11:08:41;;;;;;;52.33;37.10;;;6.30;99.90;;;;;;5049003;28;20048;-78
2023/01/31 11:11:16;;;;;;;46.27;25.13;;;6.30;99.90;;;;;;5064317;28;20430;-77
2023/01/31 11:14:02;;;;;;;58.73;47.87;;;6.30;99.90;;;;;;5062715;28;20044;-77
2023/01/31 11:16:31;;;;;;;45.77;19.33;;;6.30;99.90;;;;;;5052052;28;20044;-78
2023/01/31 11:19:00;;;;;;;43.33;16.30;;;6.30;99.90;;;;;;5061028;28;20048;-77
2023/01/31 11:21:29;;;;;;;50.17;14.43;;;6.30;99.90;;;;;;5061725;28;20048;-77
2023/01/31 11:24:03;;;;;;;56.93;31.20;;;6.30;99.90;;;;;;5056370;28;20049;-78
2023/01/31 11:26:33;;;;;;;132.20;118.73;;;6.40;99.90;;;;;;5046000;28;20044;-78
2023/01/31 11:29:01;;;;;;;41.23;11.60;;;6.50;99.90;;;;;;5058886;28;20123;-77
2023/01/31 11:31:34;;;;;;;44.97;18.93;;;6.40;99.90;;;;;;5062809;28;20064;-77
2023/01/31 11:34:03;;;;;;;38.53;10.90;;;6.40;99.90;;;;;;5064038;28;20052;-77
2023/01/31 11:36:41;;;;;;;43.53;12.33;;;6.50;99.90;;;;;;5050836;28;20101;-78
2023/01/31 11:39:27;;;;;;;66.70;51.13;;;6.50;99.90;;;;;;5074709;28;20137;-78
2023/01/31 11:41:53;;;;;;;38.30;17.17;;;6.50;99.90;;;;;;5061695;28;20060;-78
2023/01/31 11:44:21;;;;;;;49.83;30.50;;;6.60;99.90;;;;;;5064500;28;20387;-76
2023/01/31 11:46:54;;;;;;;42.07;19.23;;;6.60;99.90;;;;;;5050691;28;20183;-77
2023/01/31 11:49:27;;;;;;;34.67;13.00;;;6.60;99.90;;;;;;5064745;28;20524;-77
2023/01/31 11:51:54;;;;;;;45.57;12.53;;;6.70;99.90;;;;;;5065949;28;20158;-77
2023/01/31 11:54:25;;;;;;;72.07;65.93;;;6.70;99.90;;;;;;5064621;28;20105;-77
2023/01/31 11:56:51;;;;;;;55.90;44.03;;;6.80;99.90;;;;;;5050151;28;20079;-77
2023/01/31 11:59:21;;;;;;;35.73;11.87;;;6.70;99.90;;;;;;5064851;28;20041;-76
2023/01/31 12:01:54;;;;;;;40.60;25.60;;;6.90;99.90;;;;;;5065137;28;20052;-77
2023/01/31 12:04:31;;;;;;;37.67;13.57;;;7.00;99.90;;;;;;5062946;28;20549;-77
2023/01/31 12:07:19;;;;;;;39.63;13.17;;;7.00;99.90;;;;;;5031707;28;20056;-78
2023/01/31 12:09:44;;;;;;;36.63;16.23;;;7.10;99.90;;;;;;5078215;28;20466;-76
2023/01/31 12:12:33;;;;;;;29.70;15.00;;;7.20;99.90;;;;;;5063303;28;20072;-77
2023/01/31 12:15:02;;;;;;;52.37;45.97;;;7.20;99.90;;;;;;5064337;28;20124;-77
2023/01/31 12:17:31;;;;;;;148.87;133.50;;;7.30;99.90;;;;;;5047917;28;20083;-77
2023/01/31 12:20:31;;;;;;;34.77;15.97;;;7.40;99.90;;;;;;5059995;28;20091;-77
2023/01/31 12:23:10;;;;;;;31.50;14.40;;;7.50;99.90;;;;;;5062933;28;20045;-77
2023/01/31 12:26:04;;;;;;;39.33;21.67;;;7.50;99.90;;;;;;5064295;28;20052;-77
2023/01/31 12:28:58;;;;;;;33.37;13.93;;;7.60;99.90;;;;;;5049041;28;20495;-77
2023/01/31 12:31:53;;;;;;;28.17;11.93;;;7.60;99.90;;;;;;5063145;28;20061;-77
2023/01/31 12:34:53;;;;;;;28.57;15.13;;;7.70;99.90;;;;;;5034050;28;20048;-76
2023/01/31 12:37:25;;;;;;;32.37;17.43;;;7.80;99.90;;;;;;5049264;28;20048;-76
2023/01/31 12:40:10;;;;;;;36.33;25.03;;;7.90;99.90;;;;;;5066085;28;20520;-77
2023/01/31 12:42:57;;;;;;;30.17;13.50;;;7.80;99.90;;;;;;5063842;28;20426;-77
2023/01/31 12:45:32;;;;;;;33.57;20.40;;;7.80;99.90;;;;;;5068013;28;20119;-78
2023/01/31 12:48:04;;;;;;;30.57;16.60;;;7.70;99.90;;;;;;5051586;28;20049;-77
2023/01/31 12:51:05;;;;;;;36.37;13.80;;;7.80;99.90;;;;;;5067842;28;20420;-77
2023/01/31 12:53:52;;;;;;;46.03;40.73;;;7.90;99.90;;;;;;5040097;28;20547;-78
2023/01/31 12:56:42;;;;;;;57.00;51.97;;;7.90;99.90;;;;;;5056336;28;20088;-76
2023/01/31 12:59:26;;;;;;;37.97;27.33;;;8.00;99.90;;;;;;5067969;28;20159;-78
2023/01/31 13:02:07;;;;;;;85.83;78.10;;;8.00;99.90;;;;;;5049460;28;20052;-77
2023/01/31 13:04:57;;;;;;;31.02;17.05;;;8.00;99.90;;;;;;5067275;28;20374;-77
2023/01/31 13:07:35;;;;;;;36.33;25.37;;;8.00;99.90;;;;;;5046525;28;20048;-77